sensor_id;sensor_type;location;lat;lon;timestamp;P1;durP1;ratioP1;P2;durP2;ratioP2
17987;SDS011;9119;50.932;5.342;2023-03-04T00:02:17;107.87;;;42.43;;
17987;SDS011;9119;50.932;5.342;2023-03-04T00:04:43;86.57;;;32.80;;
17987;SDS011;9119;50.932;5.342;2023-03-04T00:07:09;271.23;;;94.23;;
17987;SDS011;9119;50.932;5.342;2023-03-04T00:09:35;255.10;;;104.33;;
17987;SDS011;9119;50.932;5.342;2023-03-04T00:12:00;76.23;;;26.87;;
17987;SDS011;9119;50.932;5.342;2023-03-04T00:14:26;98.13;;;34.37;;
17987;SDS011;9119;50.932;5.342;2023-03-04T00:16:52;97.13;;;34.30;;
17987;SDS011;9119;50.932;5.342;2023-03-04T00:19:18;85.70;;;31.07;;
17987;SDS011;9119;50.932;5.342;2023-03-04T00:21:43;213.00;;;84.93;;
17987;SDS011;9119;50.932;5.342;2023-03-04T00:24:09;64.00;;;25.40;;
17987;SDS011;9119;50.932;5.342;2023-03-04T00:26:35;64.13;;;22.57;;
17987;SDS011;9119;50.932;5.342;2023-03-04T00:29:00;66.67;;;25.00;;
17987;SDS011;9119;50.932;5.342;2023-03-04T00:31:28;62.27;;;22.83;;
17987;SDS011;9119;50.932;5.342;2023-03-04T00:33:54;60.20;;;23.47;;
17987;SDS011;9119;50.932;5.342;2023-03-04T00:36:20;61.57;;;21.37;;
17987;SDS011;9119;50.932;5.342;2023-03-04T00:38:45;52.87;;;20.27;;
17987;SDS011;9119;50.932;5.342;2023-03-04T00:41:11;67.93;;;25.43;;
17987;SDS011;9119;50.932;5.342;2023-03-04T00:43:37;186.97;;;68.57;;
17987;SDS011;9119;50.932;5.342;2023-03-04T00:46:02;68.43;;;24.43;;
17987;SDS011;9119;50.932;5.342;2023-03-04T00:48:28;74.33;;;26.00;;
17987;SDS011;9119;50.932;5.342;2023-03-04T00:50:54;66.47;;;23.17;;
17987;SDS011;9119;50.932;5.342;2023-03-04T00:53:20;86.00;;;33.43;;
17987;SDS011;9119;50.932;5.342;2023-03-04T00:55:47;47.73;;;18.87;;
17987;SDS011;9119;50.932;5.342;2023-03-04T00:58:13;64.50;;;24.27;;
17987;SDS011;9119;50.932;5.342;2023-03-04T01:00:39;69.73;;;21.97;;
17987;SDS011;9119;50.932;5.342;2023-03-04T01:03:05;54.50;;;20.53;;
17987;SDS011;9119;50.932;5.342;2023-03-04T01:05:31;54.93;;;20.77;;
17987;SDS011;9119;50.932;5.342;2023-03-04T01:07:59;67.40;;;26.23;;
17987;SDS011;9119;50.932;5.342;2023-03-04T01:10:26;65.63;;;22.93;;
17987;SDS011;9119;50.932;5.342;2023-03-04T01:12:52;65.83;;;23.73;;
17987;SDS011;9119;50.932;5.342;2023-03-04T01:15:18;129.57;;;50.17;;
17987;SDS011;9119;50.932;5.342;2023-03-04T01:17:43;67.77;;;27.00;;
17987;SDS011;9119;50.932;5.342;2023-03-04T01:20:10;49.37;;;20.00;;
17987;SDS011;9119;50.932;5.342;2023-03-04T01:22:36;243.00;;;85.17;;
17987;SDS011;9119;50.932;5.342;2023-03-04T01:25:02;65.27;;;19.27;;
17987;SDS011;9119;50.932;5.342;2023-03-04T01:27:28;52.90;;;17.90;;
17987;SDS011;9119;50.932;5.342;2023-03-04T01:29:54;68.93;;;23.43;;
17987;SDS011;9119;50.932;5.342;2023-03-04T01:32:19;51.27;;;19.57;;
17987;SDS011;9119;50.932;5.342;2023-03-04T01:34:45;53.20;;;18.90;;
17987;SDS011;9119;50.932;5.342;2023-03-04T01:37:11;62.10;;;22.67;;
17987;SDS011;9119;50.932;5.342;2023-03-04T01:39:38;49.77;;;19.70;;
17987;SDS011;9119;50.932;5.342;2023-03-04T01:42:03;64.70;;;21.87;;
17987;SDS011;9119;50.932;5.342;2023-03-04T01:44:30;69.77;;;26.33;;
17987;SDS011;9119;50.932;5.342;2023-03-04T01:46:55;57.77;;;19.97;;
17987;SDS011;9119;50.932;5.342;2023-03-04T01:49:21;52.73;;;19.23;;
17987;SDS011;9119;50.932;5.342;2023-03-04T01:51:51;50.53;;;19.47;;
17987;SDS011;9119;50.932;5.342;2023-03-04T01:54:18;55.50;;;18.10;;
17987;SDS011;9119;50.932;5.342;2023-03-04T01:56:46;58.67;;;20.70;;
17987;SDS011;9119;50.932;5.342;2023-03-04T01:59:18;53.53;;;19.33;;
17987;SDS011;9119;50.932;5.342;2023-03-04T02:01:52;60.10;;;23.67;;
17987;SDS011;9119;50.932;5.342;2023-03-04T02:04:24;50.13;;;21.17;;
17987;SDS011;9119;50.932;5.342;2023-03-04T02:06:52;56.60;;;21.60;;
17987;SDS011;9119;50.932;5.342;2023-03-04T02:09:19;46.67;;;15.17;;
17987;SDS011;9119;50.932;5.342;2023-03-04T02:11:45;53.87;;;16.17;;
17987;SDS011;9119;50.932;5.342;2023-03-04T02:14:13;45.23;;;15.33;;
17987;SDS011;9119;50.932;5.342;2023-03-04T02:16:39;55.00;;;16.07;;
17987;SDS011;9119;50.932;5.342;2023-03-04T02:19:06;50.90;;;17.60;;
17987;SDS011;9119;50.932;5.342;2023-03-04T02:21:43;45.33;;;16.40;;
17987;SDS011;9119;50.932;5.342;2023-03-04T02:24:16;40.23;;;14.83;;
17987;SDS011;9119;50.932;5.342;2023-03-04T02:26:49;45.33;;;14.90;;
17987;SDS011;9119;50.932;5.342;2023-03-04T02:29:15;50.77;;;14.63;;
17987;SDS011;9119;50.932;5.342;2023-03-04T02:31:48;43.00;;;13.97;;
17987;SDS011;9119;50.932;5.342;2023-03-04T02:34:17;38.30;;;15.03;;
17987;SDS011;9119;50.932;5.342;2023-03-04T02:36:53;42.63;;;13.83;;
17987;SDS011;9119;50.932;5.342;2023-03-04T02:41:48;41.10;;;13.03;;
17987;SDS011;9119;50.932;5.342;2023-03-04T02:44:19;37.57;;;13.67;;
17987;SDS011;9119;50.932;5.342;2023-03-04T02:46:46;43.07;;;13.20;;
17987;SDS011;9119;50.932;5.342;2023-03-04T02:49:13;41.07;;;12.10;;
17987;SDS011;9119;50.932;5.342;2023-03-04T02:51:39;37.90;;;13.10;;
17987;SDS011;9119;50.932;5.342;2023-03-04T02:54:13;36.13;;;11.60;;
17987;SDS011;9119;50.932;5.342;2023-03-04T02:56:47;35.77;;;10.87;;
17987;SDS011;9119;50.932;5.342;2023-03-04T02:59:13;34.77;;;11.43;;
17987;SDS011;9119;50.932;5.342;2023-03-04T03:01:39;37.07;;;10.27;;
17987;SDS011;9119;50.932;5.342;2023-03-04T03:04:05;36.60;;;10.17;;
17987;SDS011;9119;50.932;5.342;2023-03-04T03:06:31;36.90;;;10.63;;
17987;SDS011;9119;50.932;5.342;2023-03-04T03:08:57;37.03;;;11.57;;
17987;SDS011;9119;50.932;5.342;2023-03-04T03:11:22;75.93;;;16.37;;
17987;SDS011;9119;50.932;5.342;2023-03-04T03:13:48;51.37;;;12.27;;
17987;SDS011;9119;50.932;5.342;2023-03-04T03:16:14;31.20;;;9.50;;
17987;SDS011;9119;50.932;5.342;2023-03-04T03:18:39;47.20;;;11.83;;
17987;SDS011;9119;50.932;5.342;2023-03-04T03:21:05;32.87;;;9.67;;
17987;SDS011;9119;50.932;5.342;2023-03-04T03:23:32;29.43;;;8.90;;
17987;SDS011;9119;50.932;5.342;2023-03-04T03:25:58;27.50;;;8.93;;
17987;SDS011;9119;50.932;5.342;2023-03-04T03:28:24;29.27;;;7.63;;
17987;SDS011;9119;50.932;5.342;2023-03-04T03:30:50;30.33;;;7.37;;
17987;SDS011;9119;50.932;5.342;2023-03-04T03:33:16;28.37;;;8.07;;
17987;SDS011;9119;50.932;5.342;2023-03-04T03:35:41;25.80;;;8.00;;
17987;SDS011;9119;50.932;5.342;2023-03-04T03:38:07;27.47;;;7.67;;
17987;SDS011;9119;50.932;5.342;2023-03-04T03:40:33;28.90;;;6.53;;
17987;SDS011;9119;50.932;5.342;2023-03-04T03:42:58;32.07;;;6.43;;
17987;SDS011;9119;50.932;5.342;2023-03-04T03:45:24;25.93;;;6.80;;
17987;SDS011;9119;50.932;5.342;2023-03-04T03:47:50;19.53;;;5.70;;
17987;SDS011;9119;50.932;5.342;2023-03-04T03:50:16;26.17;;;6.37;;
17987;SDS011;9119;50.932;5.342;2023-03-04T03:52:41;21.77;;;6.47;;
17987;SDS011;9119;50.932;5.342;2023-03-04T03:55:07;28.33;;;6.60;;
17987;SDS011;9119;50.932;5.342;2023-03-04T03:57:33;29.97;;;6.20;;
17987;SDS011;9119;50.932;5.342;2023-03-04T03:59:59;24.07;;;5.33;;
17987;SDS011;9119;50.932;5.342;2023-03-04T04:02:25;16.90;;;5.70;;
17987;SDS011;9119;50.932;5.342;2023-03-04T04:04:51;18.33;;;5.83;;
17987;SDS011;9119;50.932;5.342;2023-03-04T04:07:17;22.77;;;5.53;;
17987;SDS011;9119;50.932;5.342;2023-03-04T04:09:42;24.57;;;6.00;;
17987;SDS011;9119;50.932;5.342;2023-03-04T04:12:14;27.13;;;5.27;;
17987;SDS011;9119;50.932;5.342;2023-03-04T04:14:41;18.50;;;5.47;;
17987;SDS011;9119;50.932;5.342;2023-03-04T04:17:07;27.43;;;5.27;;
17987;SDS011;9119;50.932;5.342;2023-03-04T04:19:33;22.20;;;5.13;;
17987;SDS011;9119;50.932;5.342;2023-03-04T04:21:59;21.03;;;5.07;;
17987;SDS011;9119;50.932;5.342;2023-03-04T04:24:25;18.97;;;5.20;;
17987;SDS011;9119;50.932;5.342;2023-03-04T04:26:51;27.43;;;5.43;;
17987;SDS011;9119;50.932;5.342;2023-03-04T04:29:17;26.60;;;4.90;;
17987;SDS011;9119;50.932;5.342;2023-03-04T04:31:43;24.83;;;5.13;;
17987;SDS011;9119;50.932;5.342;2023-03-04T04:34:08;21.90;;;4.57;;
17987;SDS011;9119;50.932;5.342;2023-03-04T04:36:34;23.50;;;5.57;;
17987;SDS011;9119;50.932;5.342;2023-03-04T04:39:00;31.67;;;5.40;;
17987;SDS011;9119;50.932;5.342;2023-03-04T04:41:27;24.73;;;5.20;;
17987;SDS011;9119;50.932;5.342;2023-03-04T04:43:56;16.30;;;4.53;;
17987;SDS011;9119;50.932;5.342;2023-03-04T04:46:22;21.73;;;5.07;;
17987;SDS011;9119;50.932;5.342;2023-03-04T04:48:47;20.80;;;5.37;;
17987;SDS011;9119;50.932;5.342;2023-03-04T04:51:13;22.37;;;5.43;;
17987;SDS011;9119;50.932;5.342;2023-03-04T04:53:39;15.47;;;4.20;;
17987;SDS011;9119;50.932;5.342;2023-03-04T04:56:12;30.83;;;5.37;;
17987;SDS011;9119;50.932;5.342;2023-03-04T04:58:43;21.10;;;5.33;;
17987;SDS011;9119;50.932;5.342;2023-03-04T05:01:10;23.93;;;4.40;;
17987;SDS011;9119;50.932;5.342;2023-03-04T05:03:37;23.77;;;4.33;;
17987;SDS011;9119;50.932;5.342;2023-03-04T05:06:04;27.50;;;4.60;;
17987;SDS011;9119;50.932;5.342;2023-03-04T05:08:31;19.53;;;4.87;;
17987;SDS011;9119;50.932;5.342;2023-03-04T05:10:57;16.23;;;4.53;;
17987;SDS011;9119;50.932;5.342;2023-03-04T05:13:23;12.70;;;3.60;;
17987;SDS011;9119;50.932;5.342;2023-03-04T05:15:51;21.67;;;4.30;;
17987;SDS011;9119;50.932;5.342;2023-03-04T05:18:18;15.73;;;3.97;;
17987;SDS011;9119;50.932;5.342;2023-03-04T05:20:48;24.17;;;4.00;;
17987;SDS011;9119;50.932;5.342;2023-03-04T05:23:16;17.37;;;4.20;;
17987;SDS011;9119;50.932;5.342;2023-03-04T05:25:41;26.30;;;4.13;;
17987;SDS011;9119;50.932;5.342;2023-03-04T05:28:07;27.70;;;3.83;;
17987;SDS011;9119;50.932;5.342;2023-03-04T05:30:36;23.87;;;3.97;;
17987;SDS011;9119;50.932;5.342;2023-03-04T05:33:06;20.83;;;3.83;;
17987;SDS011;9119;50.932;5.342;2023-03-04T05:35:36;19.43;;;3.73;;
17987;SDS011;9119;50.932;5.342;2023-03-04T05:38:03;20.37;;;3.77;;
17987;SDS011;9119;50.932;5.342;2023-03-04T05:40:30;19.17;;;3.57;;
17987;SDS011;9119;50.932;5.342;2023-03-04T05:42:56;23.43;;;4.50;;
17987;SDS011;9119;50.932;5.342;2023-03-04T05:45:22;20.70;;;4.67;;
17987;SDS011;9119;50.932;5.342;2023-03-04T05:47:48;22.43;;;3.97;;
17987;SDS011;9119;50.932;5.342;2023-03-04T05:50:14;13.53;;;3.67;;
17987;SDS011;9119;50.932;5.342;2023-03-04T05:52:40;15.77;;;4.10;;
17987;SDS011;9119;50.932;5.342;2023-03-04T05:55:05;20.40;;;3.77;;
17987;SDS011;9119;50.932;5.342;2023-03-04T05:57:31;22.90;;;3.67;;
17987;SDS011;9119;50.932;5.342;2023-03-04T05:59:57;22.53;;;4.63;;
17987;SDS011;9119;50.932;5.342;2023-03-04T06:02:23;18.27;;;4.00;;
17987;SDS011;9119;50.932;5.342;2023-03-04T06:04:48;18.93;;;4.80;;
17987;SDS011;9119;50.932;5.342;2023-03-04T06:07:14;28.43;;;4.13;;
17987;SDS011;9119;50.932;5.342;2023-03-04T06:09:40;16.60;;;3.53;;
17987;SDS011;9119;50.932;5.342;2023-03-04T06:12:07;20.17;;;4.40;;
17987;SDS011;9119;50.932;5.342;2023-03-04T06:14:33;19.20;;;3.93;;
17987;SDS011;9119;50.932;5.342;2023-03-04T06:16:59;16.43;;;4.33;;
17987;SDS011;9119;50.932;5.342;2023-03-04T06:19:24;19.10;;;4.20;;
17987;SDS011;9119;50.932;5.342;2023-03-04T06:21:50;21.83;;;5.13;;
17987;SDS011;9119;50.932;5.342;2023-03-04T06:24:16;17.93;;;4.67;;
17987;SDS011;9119;50.932;5.342;2023-03-04T06:26:41;23.63;;;4.77;;
17987;SDS011;9119;50.932;5.342;2023-03-04T06:29:07;18.40;;;4.43;;
17987;SDS011;9119;50.932;5.342;2023-03-04T06:31:33;26.73;;;5.13;;
17987;SDS011;9119;50.932;5.342;2023-03-04T06:33:58;22.90;;;4.80;;
17987;SDS011;9119;50.932;5.342;2023-03-04T06:36:24;19.90;;;5.10;;
17987;SDS011;9119;50.932;5.342;2023-03-04T06:38:50;17.07;;;4.30;;
17987;SDS011;9119;50.932;5.342;2023-03-04T06:41:15;18.77;;;3.97;;
17987;SDS011;9119;50.932;5.342;2023-03-04T06:43:41;27.97;;;4.83;;
17987;SDS011;9119;50.932;5.342;2023-03-04T06:46:07;31.57;;;4.37;;
17987;SDS011;9119;50.932;5.342;2023-03-04T06:48:33;18.37;;;4.30;;
17987;SDS011;9119;50.932;5.342;2023-03-04T06:51:03;19.33;;;4.63;;
17987;SDS011;9119;50.932;5.342;2023-03-04T06:53:32;21.77;;;4.67;;
17987;SDS011;9119;50.932;5.342;2023-03-04T06:55:58;16.37;;;4.33;;
17987;SDS011;9119;50.932;5.342;2023-03-04T06:58:24;24.47;;;5.07;;
17987;SDS011;9119;50.932;5.342;2023-03-04T07:00:50;22.60;;;4.27;;
17987;SDS011;9119;50.932;5.342;2023-03-04T07:03:15;21.67;;;4.77;;
17987;SDS011;9119;50.932;5.342;2023-03-04T07:05:41;17.50;;;5.13;;
17987;SDS011;9119;50.932;5.342;2023-03-04T07:08:07;24.93;;;4.87;;
17987;SDS011;9119;50.932;5.342;2023-03-04T07:10:33;26.07;;;5.13;;
17987;SDS011;9119;50.932;5.342;2023-03-04T07:12:59;23.37;;;5.43;;
17987;SDS011;9119;50.932;5.342;2023-03-04T07:15:25;19.37;;;4.67;;
17987;SDS011;9119;50.932;5.342;2023-03-04T07:17:51;29.57;;;5.23;;
17987;SDS011;9119;50.932;5.342;2023-03-04T07:20:17;13.30;;;4.70;;
17987;SDS011;9119;50.932;5.342;2023-03-04T07:22:55;13.60;;;4.87;;
17987;SDS011;9119;50.932;5.342;2023-03-04T07:25:21;20.93;;;4.87;;
17987;SDS011;9119;50.932;5.342;2023-03-04T07:27:46;18.20;;;3.80;;
17987;SDS011;9119;50.932;5.342;2023-03-04T07:30:12;17.70;;;4.07;;
17987;SDS011;9119;50.932;5.342;2023-03-04T07:32:38;19.57;;;4.47;;
17987;SDS011;9119;50.932;5.342;2023-03-04T07:35:04;25.40;;;4.50;;
17987;SDS011;9119;50.932;5.342;2023-03-04T07:37:30;14.87;;;3.90;;
17987;SDS011;9119;50.932;5.342;2023-03-04T07:39:55;18.60;;;4.43;;
17987;SDS011;9119;50.932;5.342;2023-03-04T07:42:21;30.50;;;5.17;;
17987;SDS011;9119;50.932;5.342;2023-03-04T07:44:47;21.20;;;4.13;;
17987;SDS011;9119;50.932;5.342;2023-03-04T07:47:12;15.37;;;3.57;;
17987;SDS011;9119;50.932;5.342;2023-03-04T07:49:38;32.47;;;6.00;;
17987;SDS011;9119;50.932;5.342;2023-03-04T07:52:04;20.17;;;4.83;;
17987;SDS011;9119;50.932;5.342;2023-03-04T07:54:30;27.13;;;4.40;;
17987;SDS011;9119;50.932;5.342;2023-03-04T07:56:56;16.03;;;4.27;;
17987;SDS011;9119;50.932;5.342;2023-03-04T07:59:22;14.73;;;4.10;;
17987;SDS011;9119;50.932;5.342;2023-03-04T08:01:47;22.10;;;4.20;;
17987;SDS011;9119;50.932;5.342;2023-03-04T08:04:13;16.53;;;4.77;;
17987;SDS011;9119;50.932;5.342;2023-03-04T08:06:40;20.03;;;3.80;;
17987;SDS011;9119;50.932;5.342;2023-03-04T08:09:06;13.40;;;3.53;;
17987;SDS011;9119;50.932;5.342;2023-03-04T08:11:33;15.17;;;3.67;;
17987;SDS011;9119;50.932;5.342;2023-03-04T08:14:03;18.87;;;4.20;;
17987;SDS011;9119;50.932;5.342;2023-03-04T08:16:29;19.23;;;3.83;;
17987;SDS011;9119;50.932;5.342;2023-03-04T08:18:56;17.07;;;4.77;;
17987;SDS011;9119;50.932;5.342;2023-03-04T08:21:23;20.77;;;3.93;;
17987;SDS011;9119;50.932;5.342;2023-03-04T08:23:50;16.90;;;3.77;;
17987;SDS011;9119;50.932;5.342;2023-03-04T08:26:18;23.27;;;4.93;;
17987;SDS011;9119;50.932;5.342;2023-03-04T08:28:46;19.43;;;5.10;;
17987;SDS011;9119;50.932;5.342;2023-03-04T08:31:13;15.90;;;3.73;;
17987;SDS011;9119;50.932;5.342;2023-03-04T08:33:40;16.93;;;4.33;;
17987;SDS011;9119;50.932;5.342;2023-03-04T08:36:06;21.67;;;4.17;;
17987;SDS011;9119;50.932;5.342;2023-03-04T08:38:32;16.20;;;3.97;;
17987;SDS011;9119;50.932;5.342;2023-03-04T08:40:58;12.60;;;3.53;;
17987;SDS011;9119;50.932;5.342;2023-03-04T08:43:24;19.33;;;3.53;;
17987;SDS011;9119;50.932;5.342;2023-03-04T08:45:51;16.90;;;4.30;;
17987;SDS011;9119;50.932;5.342;2023-03-04T08:48:17;16.37;;;3.70;;
17987;SDS011;9119;50.932;5.342;2023-03-04T08:50:44;16.40;;;3.90;;
17987;SDS011;9119;50.932;5.342;2023-03-04T08:53:10;19.67;;;4.20;;
17987;SDS011;9119;50.932;5.342;2023-03-04T08:55:40;12.13;;;3.40;;
17987;SDS011;9119;50.932;5.342;2023-03-04T08:58:06;17.53;;;4.00;;
17987;SDS011;9119;50.932;5.342;2023-03-04T09:00:33;17.93;;;4.37;;
17987;SDS011;9119;50.932;5.342;2023-03-04T09:03:01;12.97;;;3.87;;
17987;SDS011;9119;50.932;5.342;2023-03-04T09:05:28;19.47;;;4.47;;
17987;SDS011;9119;50.932;5.342;2023-03-04T09:07:54;14.83;;;4.23;;
17987;SDS011;9119;50.932;5.342;2023-03-04T09:10:20;14.93;;;4.17;;
17987;SDS011;9119;50.932;5.342;2023-03-04T09:12:46;17.53;;;4.03;;
17987;SDS011;9119;50.932;5.342;2023-03-04T09:15:12;18.43;;;3.77;;
17987;SDS011;9119;50.932;5.342;2023-03-04T09:17:38;19.73;;;4.10;;
17987;SDS011;9119;50.932;5.342;2023-03-04T09:20:05;18.23;;;4.50;;
17987;SDS011;9119;50.932;5.342;2023-03-04T09:22:34;12.77;;;4.00;;
17987;SDS011;9119;50.932;5.342;2023-03-04T09:25:00;17.50;;;4.03;;
17987;SDS011;9119;50.932;5.342;2023-03-04T09:27:26;13.73;;;4.17;;
17987;SDS011;9119;50.932;5.342;2023-03-04T09:29:52;11.20;;;3.10;;
17987;SDS011;9119;50.932;5.342;2023-03-04T09:32:17;23.10;;;7.13;;
17987;SDS011;9119;50.932;5.342;2023-03-04T09:34:43;11.40;;;3.90;;
17987;SDS011;9119;50.932;5.342;2023-03-04T09:37:09;21.13;;;4.73;;
17987;SDS011;9119;50.932;5.342;2023-03-04T09:39:35;10.90;;;3.37;;
17987;SDS011;9119;50.932;5.342;2023-03-04T09:42:01;20.10;;;7.87;;
17987;SDS011;9119;50.932;5.342;2023-03-04T09:44:35;16.40;;;3.97;;
17987;SDS011;9119;50.932;5.342;2023-03-04T09:47:10;19.97;;;5.30;;
17987;SDS011;9119;50.932;5.342;2023-03-04T09:49:39;15.73;;;3.70;;
17987;SDS011;9119;50.932;5.342;2023-03-04T09:57:42;17.83;;;4.30;;
17987;SDS011;9119;50.932;5.342;2023-03-04T10:05:38;12.70;;;5.17;;
17987;SDS011;9119;50.932;5.342;2023-03-04T10:08:29;9.63;;;5.80;;
17987;SDS011;9119;50.932;5.342;2023-03-04T10:10:57;17.40;;;5.17;;
17987;SDS011;9119;50.932;5.342;2023-03-04T10:13:58;13.50;;;4.90;;
17987;SDS011;9119;50.932;5.342;2023-03-04T10:16:40;12.70;;;4.83;;
17987;SDS011;9119;50.932;5.342;2023-03-04T10:19:18;13.03;;;4.80;;
17987;SDS011;9119;50.932;5.342;2023-03-04T10:21:52;11.07;;;4.27;;
17987;SDS011;9119;50.932;5.342;2023-03-04T10:24:19;15.70;;;4.33;;
17987;SDS011;9119;50.932;5.342;2023-03-04T10:26:50;15.67;;;4.37;;
17987;SDS011;9119;50.932;5.342;2023-03-04T10:29:20;7.60;;;3.67;;
17987;SDS011;9119;50.932;5.342;2023-03-04T10:31:48;8.77;;;3.33;;
17987;SDS011;9119;50.932;5.342;2023-03-04T10:34:15;16.57;;;3.47;;
17987;SDS011;9119;50.932;5.342;2023-03-04T10:39:21;12.53;;;3.47;;
17987;SDS011;9119;50.932;5.342;2023-03-04T10:41:58;21.07;;;3.33;;
17987;SDS011;9119;50.932;5.342;2023-03-04T10:44:57;10.83;;;3.40;;
17987;SDS011;9119;50.932;5.342;2023-03-04T10:47:24;14.83;;;4.47;;
17987;SDS011;9119;50.932;5.342;2023-03-04T10:49:59;15.87;;;3.87;;
17987;SDS011;9119;50.932;5.342;2023-03-04T10:52:45;8.17;;;3.87;;
17987;SDS011;9119;50.932;5.342;2023-03-04T10:55:18;11.60;;;3.70;;
17987;SDS011;9119;50.932;5.342;2023-03-04T10:57:55;8.60;;;3.60;;
17987;SDS011;9119;50.932;5.342;2023-03-04T11:00:28;13.20;;;4.50;;
17987;SDS011;9119;50.932;5.342;2023-03-04T11:06:05;14.27;;;3.33;;
17987;SDS011;9119;50.932;5.342;2023-03-04T11:08:40;13.10;;;3.60;;
17987;SDS011;9119;50.932;5.342;2023-03-04T11:11:48;8.10;;;3.47;;
17987;SDS011;9119;50.932;5.342;2023-03-04T11:14:03;25.60;;;5.30;;
17987;SDS011;9119;50.932;5.342;2023-03-04T11:16:58;15.10;;;3.93;;
17987;SDS011;9119;50.932;5.342;2023-03-04T11:19:37;10.10;;;3.63;;
17987;SDS011;9119;50.932;5.342;2023-03-04T11:22:04;10.53;;;3.80;;
17987;SDS011;9119;50.932;5.342;2023-03-04T11:24:31;17.33;;;4.20;;
17987;SDS011;9119;50.932;5.342;2023-03-04T11:29:59;9.40;;;4.43;;
17987;SDS011;9119;50.932;5.342;2023-03-04T11:32:40;10.50;;;3.63;;
17987;SDS011;9119;50.932;5.342;2023-03-04T11:40:45;13.80;;;3.70;;
17987;SDS011;9119;50.932;5.342;2023-03-04T11:43:16;10.63;;;3.87;;
17987;SDS011;9119;50.932;5.342;2023-03-04T11:48:41;15.80;;;5.03;;
17987;SDS011;9119;50.932;5.342;2023-03-04T11:55:00;16.23;;;5.33;;
17987;SDS011;9119;50.932;5.342;2023-03-04T12:03:01;19.83;;;5.33;;
17987;SDS011;9119;50.932;5.342;2023-03-04T12:14:27;11.10;;;3.87;;
17987;SDS011;9119;50.932;5.342;2023-03-04T12:16:58;11.37;;;4.47;;
17987;SDS011;9119;50.932;5.342;2023-03-04T12:19:59;12.00;;;4.30;;
17987;SDS011;9119;50.932;5.342;2023-03-04T12:22:42;9.33;;;4.37;;
17987;SDS011;9119;50.932;5.342;2023-03-04T12:28:12;13.87;;;5.03;;
17987;SDS011;9119;50.932;5.342;2023-03-04T12:33:43;14.60;;;5.00;;
17987;SDS011;9119;50.932;5.342;2023-03-04T12:44:25;18.60;;;6.13;;
17987;SDS011;9119;50.932;5.342;2023-03-04T12:49:54;19.67;;;6.93;;
17987;SDS011;9119;50.932;5.342;2023-03-04T12:55:10;19.87;;;6.60;;
17987;SDS011;9119;50.932;5.342;2023-03-04T12:57:40;19.57;;;5.30;;
17987;SDS011;9119;50.932;5.342;2023-03-04T13:08:14;12.33;;;5.00;;
17987;SDS011;9119;50.932;5.342;2023-03-04T13:14:33;17.50;;;5.27;;
17987;SDS011;9119;50.932;5.342;2023-03-04T13:16:48;19.33;;;5.73;;
17987;SDS011;9119;50.932;5.342;2023-03-04T13:24:53;9.50;;;4.67;;
17987;SDS011;9119;50.932;5.342;2023-03-04T13:38:24;12.33;;;4.97;;
17987;SDS011;9119;50.932;5.342;2023-03-04T13:51:15;20.87;;;6.23;;
17987;SDS011;9119;50.932;5.342;2023-03-04T13:56:30;19.37;;;5.90;;
17987;SDS011;9119;50.932;5.342;2023-03-04T14:01:46;14.93;;;5.60;;
17987;SDS011;9119;50.932;5.342;2023-03-04T14:07:15;11.83;;;5.53;;
17987;SDS011;9119;50.932;5.342;2023-03-04T14:10:04;13.53;;;6.03;;
17987;SDS011;9119;50.932;5.342;2023-03-04T14:12:47;10.60;;;5.90;;
17987;SDS011;9119;50.932;5.342;2023-03-04T14:17:48;16.40;;;5.63;;
17987;SDS011;9119;50.932;5.342;2023-03-04T14:20:36;14.70;;;6.10;;
17987;SDS011;9119;50.932;5.342;2023-03-04T14:23:22;15.33;;;6.07;;
17987;SDS011;9119;50.932;5.342;2023-03-04T14:26:06;11.60;;;5.30;;
17987;SDS011;9119;50.932;5.342;2023-03-04T14:31:16;14.90;;;5.60;;
17987;SDS011;9119;50.932;5.342;2023-03-04T14:33:44;15.10;;;5.23;;
17987;SDS011;9119;50.932;5.342;2023-03-04T14:36:16;13.60;;;5.50;;
17987;SDS011;9119;50.932;5.342;2023-03-04T14:38:47;12.63;;;5.13;;
17987;SDS011;9119;50.932;5.342;2023-03-04T14:47:09;12.47;;;3.83;;
17987;SDS011;9119;50.932;5.342;2023-03-04T14:49:43;10.43;;;5.33;;
17987;SDS011;9119;50.932;5.342;2023-03-04T14:52:33;13.53;;;4.30;;
17987;SDS011;9119;50.932;5.342;2023-03-04T14:57:39;17.60;;;6.27;;
17987;SDS011;9119;50.932;5.342;2023-03-04T15:00:39;12.23;;;4.70;;
17987;SDS011;9119;50.932;5.342;2023-03-04T15:03:05;11.20;;;4.03;;
17987;SDS011;9119;50.932;5.342;2023-03-04T15:05:43;9.37;;;3.70;;
17987;SDS011;9119;50.932;5.342;2023-03-04T15:11:12;14.30;;;4.70;;
17987;SDS011;9119;50.932;5.342;2023-03-04T15:13:50;20.57;;;6.93;;
17987;SDS011;9119;50.932;5.342;2023-03-04T15:16:21;13.90;;;6.57;;
17987;SDS011;9119;50.932;5.342;2023-03-04T15:18:59;9.97;;;4.27;;
17987;SDS011;9119;50.932;5.342;2023-03-04T15:21:39;7.67;;;4.60;;
17987;SDS011;9119;50.932;5.342;2023-03-04T15:24:06;11.33;;;5.23;;
17987;SDS011;9119;50.932;5.342;2023-03-04T15:26:39;12.13;;;5.03;;
17987;SDS011;9119;50.932;5.342;2023-03-04T15:29:19;16.03;;;5.87;;
17987;SDS011;9119;50.932;5.342;2023-03-04T15:31:46;13.90;;;4.97;;
17987;SDS011;9119;50.932;5.342;2023-03-04T15:34:17;16.77;;;5.40;;
17987;SDS011;9119;50.932;5.342;2023-03-04T15:36:45;18.67;;;5.43;;
17987;SDS011;9119;50.932;5.342;2023-03-04T15:39:14;14.23;;;5.80;;
17987;SDS011;9119;50.932;5.342;2023-03-04T15:41:42;11.10;;;5.70;;
17987;SDS011;9119;50.932;5.342;2023-03-04T15:44:10;17.23;;;6.03;;
17987;SDS011;9119;50.932;5.342;2023-03-04T15:46:37;10.80;;;6.97;;
17987;SDS011;9119;50.932;5.342;2023-03-04T15:49:02;14.80;;;6.43;;
17987;SDS011;9119;50.932;5.342;2023-03-04T15:51:30;12.70;;;7.27;;
17987;SDS011;9119;50.932;5.342;2023-03-04T15:53:56;14.20;;;6.40;;
17987;SDS011;9119;50.932;5.342;2023-03-04T15:56:24;22.30;;;7.10;;
17987;SDS011;9119;50.932;5.342;2023-03-04T15:58:55;13.97;;;6.97;;
17987;SDS011;9119;50.932;5.342;2023-03-04T16:01:21;17.53;;;6.67;;
17987;SDS011;9119;50.932;5.342;2023-03-04T16:03:47;16.80;;;7.47;;
17987;SDS011;9119;50.932;5.342;2023-03-04T16:06:14;13.43;;;6.70;;
17987;SDS011;9119;50.932;5.342;2023-03-04T16:08:42;26.53;;;7.23;;
17987;SDS011;9119;50.932;5.342;2023-03-04T16:11:16;12.23;;;6.83;;
17987;SDS011;9119;50.932;5.342;2023-03-04T16:13:47;16.20;;;7.20;;
17987;SDS011;9119;50.932;5.342;2023-03-04T16:16:14;18.57;;;7.73;;
17987;SDS011;9119;50.932;5.342;2023-03-04T16:18:40;27.83;;;17.63;;
17987;SDS011;9119;50.932;5.342;2023-03-04T16:21:06;21.00;;;8.60;;
17987;SDS011;9119;50.932;5.342;2023-03-04T16:23:37;13.87;;;6.60;;
17987;SDS011;9119;50.932;5.342;2023-03-04T16:26:05;14.93;;;7.33;;
17987;SDS011;9119;50.932;5.342;2023-03-04T16:28:36;17.60;;;7.53;;
17987;SDS011;9119;50.932;5.342;2023-03-04T16:31:02;15.43;;;8.53;;
17987;SDS011;9119;50.932;5.342;2023-03-04T16:33:27;12.17;;;6.90;;
17987;SDS011;9119;50.932;5.342;2023-03-04T16:35:53;16.37;;;6.90;;
17987;SDS011;9119;50.932;5.342;2023-03-04T16:40:51;13.83;;;6.90;;
17987;SDS011;9119;50.932;5.342;2023-03-04T16:43:17;11.93;;;6.93;;
17987;SDS011;9119;50.932;5.342;2023-03-04T16:45:43;18.90;;;7.70;;
17987;SDS011;9119;50.932;5.342;2023-03-04T16:48:09;21.80;;;9.57;;
17987;SDS011;9119;50.932;5.342;2023-03-04T16:50:35;15.60;;;7.10;;
17987;SDS011;9119;50.932;5.342;2023-03-04T16:53:01;13.07;;;7.70;;
17987;SDS011;9119;50.932;5.342;2023-03-04T16:55:29;17.33;;;8.33;;
17987;SDS011;9119;50.932;5.342;2023-03-04T16:57:55;17.67;;;10.53;;
17987;SDS011;9119;50.932;5.342;2023-03-04T17:00:22;13.93;;;6.80;;
17987;SDS011;9119;50.932;5.342;2023-03-04T17:02:59;20.97;;;8.23;;
17987;SDS011;9119;50.932;5.342;2023-03-04T17:05:26;14.30;;;8.10;;
17987;SDS011;9119;50.932;5.342;2023-03-04T17:07:53;26.13;;;11.60;;
17987;SDS011;9119;50.932;5.342;2023-03-04T17:10:19;18.57;;;10.20;;